Terminal Aerodrome Forecast
Issued by NWS North Platte, NE

Home | Current Version | Previous Version | Text Only | Print | Product List | Glossary On
Versions: 1 2 3 4 5 6 7 8 9 10 11 12 13 14 15
000
FTUS43 KLBF 241100
TAFLBF
TAF
KLBF 241130Z 2412/2512 14011KT P6SM SCT150
     FM241500 18014G21KT P6SM SCT250
     FM250200 22011KT P6SM BKN120
     FM250900 27005KT P6SM SCT120=

USA.gov is the U.S. government's official web portal to all federal, state and local government web resources and services.